Winigan, Missouri
Current Conditions -  °F | °C
As of 10:25 PM on Sunday 25 Jan 2015 (Local Time) from KIRK Reporting Station
Overcast Overcast  
Wind Chill: 21°   Ceiling: 1600
Heat Index: 30°   Visibility: 10mi
Dew Point: 27°   Wind: 10mph
Humidity: 88%   Direction: 360°N
Pressure: 30.08"   Gusts: NA
Location:  40.05°N, 92.9°W
Report Text: KIRK 260425Z AUTO 36009KT 10SM BKN016 OVC033 M01/M03 A3008 RMK AO2 T10111028 $
Loading
Personal Weather Stations






























Interactive Weather Map New forecast layout! Learn more

10-Day Weather Forecast

Advertisements
Track Severe Weather on mobile